sensor_id;sensor_type;location;lat;lon;timestamp;pressure;altitude;pressure_sealevel;temperature;humidity
13695;BME280;6919;52.344;14.518;2023-07-28T00:00:13;99825.94;;;17.09;100.00
13695;BME280;6919;52.344;14.518;2023-07-28T00:02:43;99820.94;;;17.06;100.00
13695;BME280;6919;52.344;14.518;2023-07-28T00:05:11;99815.09;;;17.09;100.00
13695;BME280;6919;52.344;14.518;2023-07-28T00:07:39;99799.91;;;17.08;100.00
13695;BME280;6919;52.344;14.518;2023-07-28T00:10:10;99794.69;;;17.07;100.00
13695;BME280;6919;52.344;14.518;2023-07-28T00:12:38;99792.41;;;17.10;100.00
13695;BME280;6919;52.344;14.518;2023-07-28T00:15:07;99790.72;;;17.09;100.00
13695;BME280;6919;52.344;14.518;2023-07-28T00:17:35;99789.50;;;17.05;100.00
13695;BME280;6919;52.344;14.518;2023-07-28T00:20:07;99785.56;;;17.01;100.00
13695;BME280;6919;52.344;14.518;2023-07-28T00:22:35;99796.00;;;16.91;100.00
13695;BME280;6919;52.344;14.518;2023-07-28T00:25:05;99789.91;;;17.02;100.00
13695;BME280;6919;52.344;14.518;2023-07-28T00:27:33;99788.47;;;17.00;100.00
13695;BME280;6919;52.344;14.518;2023-07-28T00:30:01;99787.63;;;17.06;100.00
13695;BME280;6919;52.344;14.518;2023-07-28T00:32:30;99785.75;;;17.00;100.00
13695;BME280;6919;52.344;14.518;2023-07-28T00:34:58;99773.66;;;17.02;100.00
13695;BME280;6919;52.344;14.518;2023-07-28T00:37:27;99764.50;;;17.03;100.00
13695;BME280;6919;52.344;14.518;2023-07-28T00:39:56;99770.53;;;17.05;100.00
13695;BME280;6919;52.344;14.518;2023-07-28T00:42:24;99772.59;;;17.10;100.00
13695;BME280;6919;52.344;14.518;2023-07-28T00:44:52;99764.22;;;17.18;100.00
13695;BME280;6919;52.344;14.518;2023-07-28T00:47:20;99771.06;;;17.20;100.00
13695;BME280;6919;52.344;14.518;2023-07-28T00:49:49;99762.16;;;17.13;100.00
13695;BME280;6919;52.344;14.518;2023-07-28T00:52:17;99756.72;;;17.13;100.00
13695;BME280;6919;52.344;14.518;2023-07-28T00:54:48;99755.69;;;17.14;100.00
13695;BME280;6919;52.344;14.518;2023-07-28T00:57:16;99759.84;;;17.17;100.00
13695;BME280;6919;52.344;14.518;2023-07-28T00:59:45;99769.84;;;17.16;100.00
13695;BME280;6919;52.344;14.518;2023-07-28T01:02:18;99762.16;;;17.13;100.00
13695;BME280;6919;52.344;14.518;2023-07-28T01:04:48;99761.88;;;17.28;100.00
13695;BME280;6919;52.344;14.518;2023-07-28T01:07:24;99761.13;;;17.14;100.00
13695;BME280;6919;52.344;14.518;2023-07-28T01:10:02;99746.56;;;17.09;100.00
13695;BME280;6919;52.344;14.518;2023-07-28T01:12:33;99744.28;;;17.06;100.00
13695;BME280;6919;52.344;14.518;2023-07-28T01:15:02;99742.75;;;17.16;100.00
13695;BME280;6919;52.344;14.518;2023-07-28T01:17:30;99748.59;;;17.13;100.00
13695;BME280;6919;52.344;14.518;2023-07-28T01:19:59;99745.50;;;17.10;100.00
13695;BME280;6919;52.344;14.518;2023-07-28T01:23:03;99751.53;;;17.12;100.00
13695;BME280;6919;52.344;14.518;2023-07-28T01:25:48;99747.38;;;17.16;100.00
13695;BME280;6919;52.344;14.518;2023-07-28T01:28:19;99754.22;;;17.12;100.00
13695;BME280;6919;52.344;14.518;2023-07-28T01:30:48;99763.63;;;17.09;100.00
13695;BME280;6919;52.344;14.518;2023-07-28T01:33:16;99773.44;;;17.04;100.00
13695;BME280;6919;52.344;14.518;2023-07-28T01:35:44;99792.00;;;17.07;100.00
13695;BME280;6919;52.344;14.518;2023-07-28T01:38:13;99800.53;;;17.10;100.00
13695;BME280;6919;52.344;14.518;2023-07-28T01:40:41;99807.41;;;17.06;100.00
13695;BME280;6919;52.344;14.518;2023-07-28T01:43:09;99813.22;;;17.10;100.00
13695;BME280;6919;52.344;14.518;2023-07-28T01:45:39;99805.69;;;17.12;100.00
13695;BME280;6919;52.344;14.518;2023-07-28T01:48:07;99818.00;;;17.14;100.00
13695;BME280;6919;52.344;14.518;2023-07-28T01:50:36;99814.09;;;17.04;100.00
13695;BME280;6919;52.344;14.518;2023-07-28T01:53:06;99817.00;;;17.09;100.00
13695;BME280;6919;52.344;14.518;2023-07-28T01:55:34;99820.94;;;17.06;100.00
13695;BME280;6919;52.344;14.518;2023-07-28T01:58:03;99817.63;;;17.04;100.00
13695;BME280;6919;52.344;14.518;2023-07-28T02:00:31;99825.34;;;17.07;100.00
13695;BME280;6919;52.344;14.518;2023-07-28T02:03:01;99824.69;;;17.05;100.00
13695;BME280;6919;52.344;14.518;2023-07-28T02:05:30;99837.81;;;17.08;100.00
13695;BME280;6919;52.344;14.518;2023-07-28T02:07:59;99831.38;;;17.03;100.00
13695;BME280;6919;52.344;14.518;2023-07-28T02:10:28;99847.44;;;17.04;100.00
13695;BME280;6919;52.344;14.518;2023-07-28T02:12:57;99849.94;;;16.99;100.00
13695;BME280;6919;52.344;14.518;2023-07-28T02:15:25;99848.06;;;17.00;100.00
13695;BME280;6919;52.344;14.518;2023-07-28T02:17:53;99848.47;;;17.03;100.00
13695;BME280;6919;52.344;14.518;2023-07-28T02:20:23;99854.47;;;17.12;100.00
13695;BME280;6919;52.344;14.518;2023-07-28T02:22:51;99852.81;;;17.11;100.00
13695;BME280;6919;52.344;14.518;2023-07-28T02:25:20;99850.97;;;17.05;100.00
13695;BME280;6919;52.344;14.518;2023-07-28T02:27:48;99867.78;;;17.13;100.00
13695;BME280;6919;52.344;14.518;2023-07-28T02:30:16;99869.47;;;17.14;100.00
13695;BME280;6919;52.344;14.518;2023-07-28T02:32:45;99876.56;;;17.15;100.00
13695;BME280;6919;52.344;14.518;2023-07-28T02:35:13;99868.84;;;17.12;100.00
13695;BME280;6919;52.344;14.518;2023-07-28T02:37:43;99866.91;;;17.26;100.00
13695;BME280;6919;52.344;14.518;2023-07-28T02:40:11;99870.28;;;17.15;100.00
13695;BME280;6919;52.344;14.518;2023-07-28T02:42:41;99876.56;;;17.15;100.00
13695;BME280;6919;52.344;14.518;2023-07-28T02:45:10;99881.97;;;17.15;100.00
13695;BME280;6919;52.344;14.518;2023-07-28T02:47:38;99881.34;;;17.13;100.00
13695;BME280;6919;52.344;14.518;2023-07-28T02:50:07;99877.19;;;17.11;100.00
13695;BME280;6919;52.344;14.518;2023-07-28T02:52:35;99876.34;;;17.17;100.00
13695;BME280;6919;52.344;14.518;2023-07-28T02:55:05;99885.53;;;17.16;100.00
13695;BME280;6919;52.344;14.518;2023-07-28T02:57:33;99875.72;;;17.15;100.00
13695;BME280;6919;52.344;14.518;2023-07-28T03:00:02;99879.66;;;17.19;100.00
13695;BME280;6919;52.344;14.518;2023-07-28T03:02:32;99888.59;;;17.26;100.00
13695;BME280;6919;52.344;14.518;2023-07-28T03:05:00;99887.22;;;17.10;100.00
13695;BME280;6919;52.344;14.518;2023-07-28T03:07:29;99891.13;;;17.21;100.00
13695;BME280;6919;52.344;14.518;2023-07-28T03:09:57;99891.97;;;17.15;100.00
13695;BME280;6919;52.344;14.518;2023-07-28T03:12:27;99890.91;;;17.22;100.00
13695;BME280;6919;52.344;14.518;2023-07-28T03:14:55;99896.56;;;17.14;100.00
13695;BME280;6919;52.344;14.518;2023-07-28T03:17:23;99892.78;;;17.22;100.00
13695;BME280;6919;52.344;14.518;2023-07-28T03:19:52;99898.78;;;17.30;100.00
13695;BME280;6919;52.344;14.518;2023-07-28T03:22:20;99923.19;;;17.37;100.00
13695;BME280;6919;52.344;14.518;2023-07-28T03:24:48;99921.69;;;17.34;100.00
13695;BME280;6919;52.344;14.518;2023-07-28T03:27:16;99920.47;;;17.30;100.00
13695;BME280;6919;52.344;14.518;2023-07-28T03:29:46;99924.19;;;17.36;100.00
13695;BME280;6919;52.344;14.518;2023-07-28T03:32:14;99923.81;;;17.32;100.00
13695;BME280;6919;52.344;14.518;2023-07-28T03:34:42;99921.06;;;17.52;100.00
13695;BME280;6919;52.344;14.518;2023-07-28T03:37:11;99917.50;;;17.52;100.00
13695;BME280;6919;52.344;14.518;2023-07-28T03:39:39;99920.03;;;17.47;100.00
13695;BME280;6919;52.344;14.518;2023-07-28T03:42:08;99916.09;;;17.42;100.00
13695;BME280;6919;52.344;14.518;2023-07-28T03:44:37;99907.28;;;17.47;100.00
13695;BME280;6919;52.344;14.518;2023-07-28T03:47:08;99897.47;;;17.52;100.00
13695;BME280;6919;52.344;14.518;2023-07-28T03:49:36;99893.75;;;17.54;100.00
13695;BME280;6919;52.344;14.518;2023-07-28T03:52:05;99887.44;;;17.60;100.00
13695;BME280;6919;52.344;14.518;2023-07-28T03:54:34;99899.53;;;17.57;100.00
13695;BME280;6919;52.344;14.518;2023-07-28T03:57:02;99892.69;;;17.55;100.00
13695;BME280;6919;52.344;14.518;2023-07-28T03:59:31;99898.09;;;17.55;100.00
13695;BME280;6919;52.344;14.518;2023-07-28T04:02:00;99890.81;;;17.55;100.00
13695;BME280;6919;52.344;14.518;2023-07-28T04:04:29;99889.13;;;17.61;100.00
13695;BME280;6919;52.344;14.518;2023-07-28T04:06:58;99891.03;;;17.54;100.00
13695;BME280;6919;52.344;14.518;2023-07-28T04:09:27;99894.34;;;17.56;100.00
13695;BME280;6919;52.344;14.518;2023-07-28T04:11:56;99905.97;;;17.63;100.00
13695;BME280;6919;52.344;14.518;2023-07-28T04:14:24;99910.59;;;17.62;100.00
13695;BME280;6919;52.344;14.518;2023-07-28T04:16:52;99917.25;;;17.66;100.00
13695;BME280;6919;52.344;14.518;2023-07-28T04:19:20;99919.09;;;17.66;100.00
13695;BME280;6919;52.344;14.518;2023-07-28T04:21:50;99921.22;;;17.64;100.00
13695;BME280;6919;52.344;14.518;2023-07-28T04:24:18;99925.84;;;17.57;100.00
13695;BME280;6919;52.344;14.518;2023-07-28T04:26:47;99924.09;;;17.69;100.00
13695;BME280;6919;52.344;14.518;2023-07-28T04:29:16;99931.22;;;17.63;100.00
13695;BME280;6919;52.344;14.518;2023-07-28T04:31:45;99935.16;;;17.67;100.00
13695;BME280;6919;52.344;14.518;2023-07-28T04:34:13;99932.66;;;17.66;100.00
13695;BME280;6919;52.344;14.518;2023-07-28T04:36:41;99933.50;;;17.66;100.00
13695;BME280;6919;52.344;14.518;2023-07-28T04:39:11;99933.72;;;17.65;100.00
13695;BME280;6919;52.344;14.518;2023-07-28T04:41:39;99932.88;;;17.71;100.00
13695;BME280;6919;52.344;14.518;2023-07-28T04:44:08;99921.97;;;17.77;100.00
13695;BME280;6919;52.344;14.518;2023-07-28T04:46:36;99920.69;;;17.80;100.00
13695;BME280;6919;52.344;14.518;2023-07-28T04:49:04;99922.13;;;17.89;100.00
13695;BME280;6919;52.344;14.518;2023-07-28T04:51:32;99905.75;;;17.71;100.00
13695;BME280;6919;52.344;14.518;2023-07-28T04:54:01;99908.22;;;17.72;100.00
13695;BME280;6919;52.344;14.518;2023-07-28T04:56:30;99908.78;;;17.87;100.00
13695;BME280;6919;52.344;14.518;2023-07-28T04:58:59;99901.13;;;17.78;100.00
13695;BME280;6919;52.344;14.518;2023-07-28T05:01:28;99905.88;;;17.82;100.00
13695;BME280;6919;52.344;14.518;2023-07-28T05:03:56;99903.38;;;17.81;100.00
13695;BME280;6919;52.344;14.518;2023-07-28T05:06:25;99896.88;;;17.88;100.00
13695;BME280;6919;52.344;14.518;2023-07-28T05:08:53;99902.50;;;17.87;100.00
13695;BME280;6919;52.344;14.518;2023-07-28T05:11:21;99904.53;;;17.98;100.00
13695;BME280;6919;52.344;14.518;2023-07-28T05:13:51;99897.59;;;18.02;100.00
13695;BME280;6919;52.344;14.518;2023-07-28T05:16:19;99905.59;;;17.97;100.00
13695;BME280;6919;52.344;14.518;2023-07-28T05:18:47;99885.94;;;18.01;100.00
13695;BME280;6919;52.344;14.518;2023-07-28T05:21:16;99886.53;;;18.03;100.00
13695;BME280;6919;52.344;14.518;2023-07-28T05:23:44;99882.13;;;18.09;100.00
13695;BME280;6919;52.344;14.518;2023-07-28T05:26:12;99879.41;;;18.09;100.00
13695;BME280;6919;52.344;14.518;2023-07-28T05:28:41;99879.81;;;18.12;100.00
13695;BME280;6919;52.344;14.518;2023-07-28T05:31:10;99879.31;;;18.22;100.00
13695;BME280;6919;52.344;14.518;2023-07-28T05:33:40;99868.75;;;18.14;100.00
13695;BME280;6919;52.344;14.518;2023-07-28T05:36:09;99873.31;;;18.13;100.00
13695;BME280;6919;52.344;14.518;2023-07-28T05:38:37;99863.09;;;18.15;100.00
13695;BME280;6919;52.344;14.518;2023-07-28T05:41:05;99858.88;;;18.19;100.00
13695;BME280;6919;52.344;14.518;2023-07-28T05:43:34;99851.41;;;18.15;100.00
13695;BME280;6919;52.344;14.518;2023-07-28T05:46:02;99859.25;;;18.23;100.00
13695;BME280;6919;52.344;14.518;2023-07-28T05:48:32;99845.34;;;18.13;100.00
13695;BME280;6919;52.344;14.518;2023-07-28T05:51:00;99841.66;;;18.32;100.00
13695;BME280;6919;52.344;14.518;2023-07-28T05:53:28;99847.53;;;18.29;100.00
13695;BME280;6919;52.344;14.518;2023-07-28T05:55:57;99834.56;;;18.31;100.00
13695;BME280;6919;52.344;14.518;2023-07-28T05:58:25;99835.38;;;18.38;100.00
13695;BME280;6919;52.344;14.518;2023-07-28T06:00:54;99833.72;;;18.30;100.00
13695;BME280;6919;52.344;14.518;2023-07-28T06:03:22;99834.75;;;18.36;100.00
13695;BME280;6919;52.344;14.518;2023-07-28T06:05:52;99827.81;;;18.40;100.00
13695;BME280;6919;52.344;14.518;2023-07-28T06:08:21;99829.03;;;18.44;100.00
13695;BME280;6919;52.344;14.518;2023-07-28T06:10:49;99830.34;;;18.35;100.00
13695;BME280;6919;52.344;14.518;2023-07-28T06:13:18;99831.59;;;18.39;100.00
13695;BME280;6919;52.344;14.518;2023-07-28T06:15:47;99836.16;;;18.45;100.00
13695;BME280;6919;52.344;14.518;2023-07-28T06:18:15;99841.31;;;18.46;100.00
13695;BME280;6919;52.344;14.518;2023-07-28T06:20:44;99837.72;;;18.52;100.00
13695;BME280;6919;52.344;14.518;2023-07-28T06:23:14;99841.22;;;18.59;100.00
13695;BME280;6919;52.344;14.518;2023-07-28T06:25:42;99853.00;;;18.71;100.00
13695;BME280;6919;52.344;14.518;2023-07-28T06:28:13;99846.56;;;18.66;100.00
13695;BME280;6919;52.344;14.518;2023-07-28T06:30:46;99842.06;;;18.60;100.00
13695;BME280;6919;52.344;14.518;2023-07-28T06:33:44;99849.56;;;18.58;100.00
13695;BME280;6919;52.344;14.518;2023-07-28T06:36:27;99855.19;;;18.63;100.00
13695;BME280;6919;52.344;14.518;2023-07-28T06:38:59;99869.81;;;18.80;100.00
13695;BME280;6919;52.344;14.518;2023-07-28T06:41:28;99856.31;;;18.73;100.00
13695;BME280;6919;52.344;14.518;2023-07-28T06:43:56;99855.47;;;18.73;100.00
13695;BME280;6919;52.344;14.518;2023-07-28T06:46:25;99856.63;;;18.65;100.00
13695;BME280;6919;52.344;14.518;2023-07-28T06:48:54;99855.94;;;18.70;100.00
13695;BME280;6919;52.344;14.518;2023-07-28T06:51:22;99853.81;;;18.72;100.00
13695;BME280;6919;52.344;14.518;2023-07-28T06:53:50;99831.31;;;18.65;100.00
13695;BME280;6919;52.344;14.518;2023-07-28T06:56:20;99837.28;;;18.55;100.00
13695;BME280;6919;52.344;14.518;2023-07-28T06:58:48;99830.81;;;18.74;100.00
13695;BME280;6919;52.344;14.518;2023-07-28T07:01:34;99828.47;;;18.60;100.00
13695;BME280;6919;52.344;14.518;2023-07-28T07:04:03;99838.38;;;18.72;100.00
13695;BME280;6919;52.344;14.518;2023-07-28T07:06:33;99836.63;;;18.78;100.00
13695;BME280;6919;52.344;14.518;2023-07-28T07:09:03;99831.78;;;18.62;100.00
13695;BME280;6919;52.344;14.518;2023-07-28T07:11:35;99826.97;;;18.64;100.00
13695;BME280;6919;52.344;14.518;2023-07-28T07:14:04;99829.47;;;18.65;100.00
13695;BME280;6919;52.344;14.518;2023-07-28T07:16:34;99827.88;;;18.76;100.00
13695;BME280;6919;52.344;14.518;2023-07-28T07:19:03;99820.19;;;19.09;100.00
13695;BME280;6919;52.344;14.518;2023-07-28T07:21:32;99814.75;;;19.09;100.00
13695;BME280;6919;52.344;14.518;2023-07-28T07:24:02;99809.91;;;19.11;100.00
13695;BME280;6919;52.344;14.518;2023-07-28T07:26:31;99802.66;;;19.23;100.00
13695;BME280;6919;52.344;14.518;2023-07-28T07:29:00;99800.97;;;19.22;100.00
13695;BME280;6919;52.344;14.518;2023-07-28T07:31:30;99790.34;;;19.02;100.00
13695;BME280;6919;52.344;14.518;2023-07-28T07:33:58;99780.78;;;19.00;100.00
13695;BME280;6919;52.344;14.518;2023-07-28T07:36:27;99774.44;;;19.06;100.00
13695;BME280;6919;52.344;14.518;2023-07-28T07:38:55;99783.56;;;19.11;100.00
13695;BME280;6919;52.344;14.518;2023-07-28T07:41:24;99774.13;;;19.14;100.00
13695;BME280;6919;52.344;14.518;2023-07-28T07:43:54;99779.66;;;19.25;100.00
13695;BME280;6919;52.344;14.518;2023-07-28T07:46:24;99785.25;;;19.42;100.00
13695;BME280;6919;52.344;14.518;2023-07-28T07:48:52;99771.91;;;19.40;100.00
13695;BME280;6919;52.344;14.518;2023-07-28T07:51:20;99758.63;;;19.62;100.00
13695;BME280;6919;52.344;14.518;2023-07-28T07:53:48;99734.75;;;19.34;100.00
13695;BME280;6919;52.344;14.518;2023-07-28T07:56:17;99737.81;;;19.26;100.00
13695;BME280;6919;52.344;14.518;2023-07-28T07:58:45;99751.22;;;19.39;100.00
13695;BME280;6919;52.344;14.518;2023-07-28T08:01:13;99757.78;;;19.32;100.00
13695;BME280;6919;52.344;14.518;2023-07-28T08:03:43;99740.13;;;19.23;100.00
13695;BME280;6919;52.344;14.518;2023-07-28T08:06:11;99765.84;;;19.38;100.00
13695;BME280;6919;52.344;14.518;2023-07-28T08:08:41;99760.19;;;19.40;100.00
13695;BME280;6919;52.344;14.518;2023-07-28T08:11:11;99759.66;;;19.49;100.00
13695;BME280;6919;52.344;14.518;2023-07-28T08:13:40;99760.69;;;19.48;100.00
13695;BME280;6919;52.344;14.518;2023-07-28T08:16:08;99744.06;;;19.56;100.00
13695;BME280;6919;52.344;14.518;2023-07-28T08:18:36;99745.72;;;19.57;100.00
13695;BME280;6919;52.344;14.518;2023-07-28T08:21:06;99745.84;;;19.74;100.00
13695;BME280;6919;52.344;14.518;2023-07-28T08:23:34;99741.41;;;19.50;100.00
13695;BME280;6919;52.344;14.518;2023-07-28T08:26:03;99745.63;;;19.75;100.00
13695;BME280;6919;52.344;14.518;2023-07-28T08:28:31;99738.69;;;19.91;100.00
13695;BME280;6919;52.344;14.518;2023-07-28T08:31:00;99721.03;;;19.82;100.00
13695;BME280;6919;52.344;14.518;2023-07-28T08:33:30;99726.13;;;19.78;100.00
13695;BME280;6919;52.344;14.518;2023-07-28T08:35:59;99735.03;;;19.97;100.00
13695;BME280;6919;52.344;14.518;2023-07-28T08:38:32;99719.50;;;19.74;100.00
13695;BME280;6919;52.344;14.518;2023-07-28T08:41:00;99735.81;;;19.86;100.00
13695;BME280;6919;52.344;14.518;2023-07-28T08:43:29;99739.13;;;19.76;100.00
13695;BME280;6919;52.344;14.518;2023-07-28T08:45:58;99743.25;;;19.79;100.00
13695;BME280;6919;52.344;14.518;2023-07-28T08:48:26;99760.25;;;19.63;100.00
13695;BME280;6919;52.344;14.518;2023-07-28T08:50:55;99761.72;;;19.77;100.00
13695;BME280;6919;52.344;14.518;2023-07-28T08:53:23;99758.97;;;20.18;100.00
13695;BME280;6919;52.344;14.518;2023-07-28T08:55:53;99746.94;;;19.96;100.00
13695;BME280;6919;52.344;14.518;2023-07-28T08:58:22;99731.47;;;20.08;100.00
13695;BME280;6919;52.344;14.518;2023-07-28T09:00:52;99734.56;;;20.23;100.00
13695;BME280;6919;52.344;14.518;2023-07-28T09:03:21;99718.50;;;20.73;100.00
13695;BME280;6919;52.344;14.518;2023-07-28T09:05:59;99717.38;;;20.85;100.00
13695;BME280;6919;52.344;14.518;2023-07-28T09:08:30;99705.31;;;20.93;100.00
13695;BME280;6919;52.344;14.518;2023-07-28T09:11:05;99707.50;;;20.68;100.00
13695;BME280;6919;52.344;14.518;2023-07-28T09:13:39;99707.59;;;20.73;100.00
13695;BME280;6919;52.344;14.518;2023-07-28T09:16:17;99704.09;;;20.49;100.00
13695;BME280;6919;52.344;14.518;2023-07-28T09:18:46;99706.13;;;20.42;100.00
13695;BME280;6919;52.344;14.518;2023-07-28T09:21:19;99717.97;;;20.48;100.00
13695;BME280;6919;52.344;14.518;2023-07-28T09:23:49;99710.13;;;20.63;100.00
13695;BME280;6919;52.344;14.518;2023-07-28T09:26:18;99706.56;;;20.62;100.00
13695;BME280;6919;52.344;14.518;2023-07-28T09:28:47;99712.00;;;20.74;100.00
13695;BME280;6919;52.344;14.518;2023-07-28T09:31:15;99694.59;;;21.14;100.00
13695;BME280;6919;52.344;14.518;2023-07-28T09:33:43;99679.38;;;21.18;100.00
13695;BME280;6919;52.344;14.518;2023-07-28T09:36:15;99681.06;;;21.52;100.00
13695;BME280;6919;52.344;14.518;2023-07-28T09:38:44;99670.06;;;21.64;100.00
13695;BME280;6919;52.344;14.518;2023-07-28T09:41:13;99658.94;;;21.82;100.00
13695;BME280;6919;52.344;14.518;2023-07-28T09:43:42;99648.53;;;21.95;100.00
13695;BME280;6919;52.344;14.518;2023-07-28T09:46:13;99635.06;;;22.10;100.00
13695;BME280;6919;52.344;14.518;2023-07-28T09:48:48;99642.91;;;22.23;100.00
13695;BME280;6919;52.344;14.518;2023-07-28T09:51:22;99628.81;;;21.93;100.00
13695;BME280;6919;52.344;14.518;2023-07-28T09:54:00;99622.41;;;21.83;100.00
13695;BME280;6919;52.344;14.518;2023-07-28T09:56:30;99633.31;;;22.42;100.00
13695;BME280;6919;52.344;14.518;2023-07-28T09:59:07;99623.72;;;22.18;100.00
13695;BME280;6919;52.344;14.518;2023-07-28T10:01:39;99640.13;;;22.40;100.00
13695;BME280;6919;52.344;14.518;2023-07-28T10:04:10;99626.03;;;22.48;100.00
13695;BME280;6919;52.344;14.518;2023-07-28T10:06:39;99628.91;;;22.58;100.00
13695;BME280;6919;52.344;14.518;2023-07-28T10:09:07;99637.53;;;22.98;100.00
13695;BME280;6919;52.344;14.518;2023-07-28T10:11:36;99632.28;;;22.92;100.00
13695;BME280;6919;52.344;14.518;2023-07-28T10:14:07;99623.16;;;23.08;100.00
13695;BME280;6919;52.344;14.518;2023-07-28T10:16:39;99640.03;;;23.00;100.00
13695;BME280;6919;52.344;14.518;2023-07-28T10:19:09;99652.03;;;22.50;100.00
13695;BME280;6919;52.344;14.518;2023-07-28T10:21:40;99723.56;;;21.20;100.00
13695;BME280;6919;52.344;14.518;2023-07-28T10:24:09;99770.31;;;20.38;100.00
13695;BME280;6919;52.344;14.518;2023-07-28T10:26:39;99812.69;;;20.11;100.00
13695;BME280;6919;52.344;14.518;2023-07-28T10:29:11;99811.94;;;20.04;100.00
13695;BME280;6919;52.344;14.518;2023-07-28T10:31:51;99832.50;;;20.00;100.00
13695;BME280;6919;52.344;14.518;2023-07-28T10:34:21;99851.41;;;20.25;100.00
13695;BME280;6919;52.344;14.518;2023-07-28T10:36:57;99848.84;;;20.64;100.00
13695;BME280;6919;52.344;14.518;2023-07-28T10:39:27;99848.53;;;21.12;100.00
13695;BME280;6919;52.344;14.518;2023-07-28T10:42:03;99838.63;;;21.06;100.00
13695;BME280;6919;52.344;14.518;2023-07-28T10:44:33;99854.88;;;21.40;100.00
13695;BME280;6919;52.344;14.518;2023-07-28T10:47:07;99859.47;;;21.51;100.00
13695;BME280;6919;52.344;14.518;2023-07-28T10:49:35;99827.88;;;21.27;100.00
13695;BME280;6919;52.344;14.518;2023-07-28T10:52:04;99827.91;;;21.55;100.00
13695;BME280;6919;52.344;14.518;2023-07-28T10:54:33;99814.75;;;21.80;100.00
13695;BME280;6919;52.344;14.518;2023-07-28T10:57:02;99773.81;;;21.80;100.00
13695;BME280;6919;52.344;14.518;2023-07-28T10:59:35;99759.94;;;21.54;100.00
13695;BME280;6919;52.344;14.518;2023-07-28T11:02:04;99763.91;;;21.18;100.00
13695;BME280;6919;52.344;14.518;2023-07-28T11:04:32;99774.31;;;20.93;100.00
13695;BME280;6919;52.344;14.518;2023-07-28T11:07:00;99783.41;;;20.87;100.00
13695;BME280;6919;52.344;14.518;2023-07-28T11:09:29;99799.09;;;21.31;100.00
13695;BME280;6919;52.344;14.518;2023-07-28T11:11:58;99824.03;;;21.79;100.00
13695;BME280;6919;52.344;14.518;2023-07-28T11:14:27;99824.94;;;21.57;100.00
13695;BME280;6919;52.344;14.518;2023-07-28T11:16:58;99823.81;;;21.97;100.00
13695;BME280;6919;52.344;14.518;2023-07-28T11:19:26;99824.22;;;22.22;100.00
13695;BME280;6919;52.344;14.518;2023-07-28T11:21:55;99810.81;;;22.21;100.00
13695;BME280;6919;52.344;14.518;2023-07-28T11:24:25;99775.56;;;21.86;100.00
13695;BME280;6919;52.344;14.518;2023-07-28T11:26:57;99774.91;;;21.79;100.00
13695;BME280;6919;52.344;14.518;2023-07-28T11:29:28;99769.97;;;22.09;100.00
13695;BME280;6919;52.344;14.518;2023-07-28T11:31:57;99770.91;;;22.53;100.00
13695;BME280;6919;52.344;14.518;2023-07-28T11:34:25;99748.38;;;23.06;100.00
13695;BME280;6919;52.344;14.518;2023-07-28T11:36:54;99729.41;;;23.21;100.00
13695;BME280;6919;52.344;14.518;2023-07-28T11:39:25;99722.22;;;23.15;100.00
13695;BME280;6919;52.344;14.518;2023-07-28T11:41:53;99723.03;;;22.88;100.00
13695;BME280;6919;52.344;14.518;2023-07-28T11:44:22;99729.00;;;22.64;100.00
13695;BME280;6919;52.344;14.518;2023-07-28T11:46:51;99725.50;;;22.30;100.00
13695;BME280;6919;52.344;14.518;2023-07-28T11:49:24;99712.53;;;22.04;100.00
13695;BME280;6919;52.344;14.518;2023-07-28T11:51:54;99718.91;;;21.93;100.00
13695;BME280;6919;52.344;14.518;2023-07-28T11:54:26;99732.94;;;22.18;100.00
13695;BME280;6919;52.344;14.518;2023-07-28T11:56:56;99737.50;;;22.13;100.00
13695;BME280;6919;52.344;14.518;2023-07-28T11:59:25;99739.97;;;22.31;100.00
13695;BME280;6919;52.344;14.518;2023-07-28T12:01:56;99733.53;;;22.75;100.00
13695;BME280;6919;52.344;14.518;2023-07-28T12:04:30;99727.41;;;22.89;100.00
13695;BME280;6919;52.344;14.518;2023-07-28T12:07:08;99733.31;;;22.60;100.00
13695;BME280;6919;52.344;14.518;2023-07-28T12:09:49;99746.84;;;22.50;100.00
13695;BME280;6919;52.344;14.518;2023-07-28T12:12:23;99763.81;;;22.35;100.00
13695;BME280;6919;52.344;14.518;2023-07-28T12:14:53;99766.59;;;22.40;100.00
13695;BME280;6919;52.344;14.518;2023-07-28T12:17:26;99783.31;;;22.60;100.00
13695;BME280;6919;52.344;14.518;2023-07-28T12:20:17;99774.28;;;22.76;100.00
13695;BME280;6919;52.344;14.518;2023-07-28T12:22:47;99766.63;;;22.57;100.00
13695;BME280;6919;52.344;14.518;2023-07-28T12:25:15;99771.00;;;22.58;100.00
13695;BME280;6919;52.344;14.518;2023-07-28T12:27:44;99783.50;;;22.54;100.00
13695;BME280;6919;52.344;14.518;2023-07-28T12:30:12;99778.06;;;22.37;100.00
13695;BME280;6919;52.344;14.518;2023-07-28T12:32:43;99786.34;;;22.26;100.00
13695;BME280;6919;52.344;14.518;2023-07-28T12:35:16;99788.16;;;22.04;100.00
13695;BME280;6919;52.344;14.518;2023-07-28T12:37:45;99800.47;;;21.90;100.00
13695;BME280;6919;52.344;14.518;2023-07-28T12:40:17;99802.97;;;21.63;100.00
13695;BME280;6919;52.344;14.518;2023-07-28T12:42:48;99821.06;;;21.69;100.00
13695;BME280;6919;52.344;14.518;2023-07-28T12:45:20;99840.88;;;21.76;100.00
13695;BME280;6919;52.344;14.518;2023-07-28T12:47:49;99863.19;;;21.73;100.00
13695;BME280;6919;52.344;14.518;2023-07-28T12:50:26;99861.28;;;21.34;100.00
13695;BME280;6919;52.344;14.518;2023-07-28T12:52:55;99873.13;;;21.40;100.00
13695;BME280;6919;52.344;14.518;2023-07-28T12:55:26;99873.91;;;21.24;100.00
13695;BME280;6919;52.344;14.518;2023-07-28T12:57:55;99868.31;;;21.30;100.00
13695;BME280;6919;52.344;14.518;2023-07-28T13:00:25;99873.44;;;21.15;100.00
13695;BME280;6919;52.344;14.518;2023-07-28T13:02:56;99873.50;;;21.43;100.00